< < Back
Terminal Aerodrome Forecast


Current Version              Previous Versions:   1  2  3  4  5  6  7  8  9  

Terminal Aerodrome Forecast

290
FTUS42 KGSP 181100
TAFCLT
TAF
KCLT 181140Z 1812/1912 02003KT 5SM BR OVC006
      TEMPO 1812/1814 2SM BR OVC004
     FM181600 05004KT P6SM BKN017
     FM181800 05004KT P6SM BKN040
     FM190000 11004KT P6SM BKN045
     FM191100 05004KT 6SM BR BKN017=



Latest METAR

558
SAUS70 KWBC 181700 RRX
MTRCLT
METAR KCLT 181852Z 15004KT 10SM BKN038 BKN110 BKN160 25/16 A2999 RMK AO2
SLP149 T02500161


USA.gov is the U.S. government's official web portal to all federal, state and local government web resources and services.